KLBF/LBF METAR and TAF weather

Enter ICAO airport designator
Station Type Date Time Source
KLBF METAR 2019/11/15 04:53 UTC NOAA

KLBF 150453Z AUTO 18007KT 10SM CLR 03/M01 A3024 RMK AO2 SLP252 T00281011


Station Type Date Time Source
KLBF Decoded METAR 2019/11/15 04:53 UTC NOAA

NORTH PLATTE REGIONAL AIRPORT , NE, United States (KLBF) 41-07N 100-40W 847M
Nov 14, 2019 - 11:53 PM EST / 2019.11.15 0453 UTC
Wind: from the S (180 degrees) at 8 MPH (7 KT):0
Visibility: 10 mile(s):0
Sky conditions: clear
Temperature: 37.0 F (2.8 C)
Dew Point: 30.0 F (-1.1 C)
Relative Humidity: 75%
Pressure (altimeter): 30.24 in. Hg (1024 hPa)
ob: KLBF 150453Z AUTO 18007KT 10SM CLR 03/M01 A3024 RMK AO2 SLP252 T00281011
cycle: 5

Station Type Date Time Source
KLBF TAF 2019/11/15 06:22 UTC NOAA

TAF KLBF 150520Z 1506/1606 VRB04KT P6SM FEW250
FM151900 19006KT P6SM FEW250
FM152300 17005KT P6SM FEW250
FM160500 VRB03KT P6SM SCT200

Example: see airport list